Terminal Aerodrome Forecast
Issued by NWS

Home | Current Version | Previous Version | Text Only | Print | Product List | Glossary On
Versions: 1 2 3 4 5 6 7 8 9 10 11 12 13 14 15 16 17
000
FTUS42 KTAE 191304 AAA
TAFVLD
TAF AMD
KVLD 191304Z 1913/2012 15005KT 4SM BR OVC006
     FM191400 20009KT P6SM BKN020 OVC150
     FM191800 21013G20KT 2SM +TSRA SCT003 BKN020CB
     FM200000 19002KT P6SM BKN025
     FM200300 19003KT P6SM OVC004=

USA.gov is the U.S. government's official web portal to all federal, state and local government web resources and services.